sensor_id;sensor_type;location;lat;lon;timestamp;temperature;humidity
59469;DHT22;45277;52.768;18.262;2023-08-08T00:00:13;13.40;99.90
59469;DHT22;45277;52.768;18.262;2023-08-08T00:02:05;13.40;99.90
59469;DHT22;45277;52.768;18.262;2023-08-08T00:03:37;13.50;99.90
59469;DHT22;45277;52.768;18.262;2023-08-08T00:05:08;13.50;99.90
59469;DHT22;45277;52.768;18.262;2023-08-08T00:06:40;13.50;99.90
59469;DHT22;45277;52.768;18.262;2023-08-08T00:08:11;13.50;99.90
59469;DHT22;45277;52.768;18.262;2023-08-08T00:09:42;13.50;99.90
59469;DHT22;45277;52.768;18.262;2023-08-08T00:11:14;13.40;99.90
59469;DHT22;45277;52.768;18.262;2023-08-08T00:12:45;13.40;99.90
59469;DHT22;45277;52.768;18.262;2023-08-08T00:14:17;13.40;99.90
59469;DHT22;45277;52.768;18.262;2023-08-08T00:15:48;13.40;99.90
59469;DHT22;45277;52.768;18.262;2023-08-08T00:17:20;13.40;99.90
59469;DHT22;45277;52.768;18.262;2023-08-08T00:18:51;13.40;99.90
59469;DHT22;45277;52.768;18.262;2023-08-08T00:20:24;13.40;99.90
59469;DHT22;45277;52.768;18.262;2023-08-08T00:21:56;13.30;99.90
59469;DHT22;45277;52.768;18.262;2023-08-08T00:23:27;13.40;99.90
59469;DHT22;45277;52.768;18.262;2023-08-08T00:24:59;13.40;99.90
59469;DHT22;45277;52.768;18.262;2023-08-08T00:26:30;13.30;99.90
59469;DHT22;45277;52.768;18.262;2023-08-08T00:28:02;13.30;99.90
59469;DHT22;45277;52.768;18.262;2023-08-08T00:29:34;13.30;99.90
59469;DHT22;45277;52.768;18.262;2023-08-08T00:31:05;13.30;99.90
59469;DHT22;45277;52.768;18.262;2023-08-08T00:32:36;13.20;99.90
59469;DHT22;45277;52.768;18.262;2023-08-08T00:34:08;13.20;99.90
59469;DHT22;45277;52.768;18.262;2023-08-08T00:35:39;13.20;99.90
59469;DHT22;45277;52.768;18.262;2023-08-08T00:37:11;13.20;99.90
59469;DHT22;45277;52.768;18.262;2023-08-08T00:38:42;13.20;99.90
59469;DHT22;45277;52.768;18.262;2023-08-08T00:40:13;13.10;99.90
59469;DHT22;45277;52.768;18.262;2023-08-08T00:41:45;13.20;99.90
59469;DHT22;45277;52.768;18.262;2023-08-08T00:43:16;13.20;99.90
59469;DHT22;45277;52.768;18.262;2023-08-08T00:44:48;13.20;99.90
59469;DHT22;45277;52.768;18.262;2023-08-08T00:46:21;13.10;99.90
59469;DHT22;45277;52.768;18.262;2023-08-08T00:47:53;13.20;99.90
59469;DHT22;45277;52.768;18.262;2023-08-08T00:49:25;13.20;99.90
59469;DHT22;45277;52.768;18.262;2023-08-08T00:50:56;13.10;99.90
59469;DHT22;45277;52.768;18.262;2023-08-08T00:52:28;13.20;99.90
59469;DHT22;45277;52.768;18.262;2023-08-08T00:54:00;13.20;99.90
59469;DHT22;45277;52.768;18.262;2023-08-08T00:55:32;13.30;99.90
59469;DHT22;45277;52.768;18.262;2023-08-08T00:57:04;13.30;99.90
59469;DHT22;45277;52.768;18.262;2023-08-08T00:58:35;13.40;99.90
59469;DHT22;45277;52.768;18.262;2023-08-08T01:00:07;13.40;99.90
59469;DHT22;45277;52.768;18.262;2023-08-08T01:02:11;13.40;99.90
59469;DHT22;45277;52.768;18.262;2023-08-08T01:03:43;13.40;99.90
59469;DHT22;45277;52.768;18.262;2023-08-08T01:05:14;13.40;99.90
59469;DHT22;45277;52.768;18.262;2023-08-08T01:06:57;13.30;99.90
59469;DHT22;45277;52.768;18.262;2023-08-08T01:08:35;13.40;99.90
59469;DHT22;45277;52.768;18.262;2023-08-08T01:10:19;13.40;99.90
59469;DHT22;45277;52.768;18.262;2023-08-08T01:11:52;13.40;99.90
59469;DHT22;45277;52.768;18.262;2023-08-08T01:13:25;13.40;99.90
59469;DHT22;45277;52.768;18.262;2023-08-08T01:14:59;13.40;99.90
59469;DHT22;45277;52.768;18.262;2023-08-08T01:16:31;13.30;99.90
59469;DHT22;45277;52.768;18.262;2023-08-08T01:18:04;13.30;99.90
59469;DHT22;45277;52.768;18.262;2023-08-08T01:19:36;13.20;99.90
59469;DHT22;45277;52.768;18.262;2023-08-08T01:21:09;13.20;99.90
59469;DHT22;45277;52.768;18.262;2023-08-08T01:23:41;13.20;99.90
59469;DHT22;45277;52.768;18.262;2023-08-08T01:25:05;13.10;99.90
59469;DHT22;45277;52.768;18.262;2023-08-08T01:26:37;13.10;99.90
59469;DHT22;45277;52.768;18.262;2023-08-08T01:28:09;13.10;99.90
59469;DHT22;45277;52.768;18.262;2023-08-08T01:29:41;13.00;99.90
59469;DHT22;45277;52.768;18.262;2023-08-08T01:31:13;13.00;99.90
59469;DHT22;45277;52.768;18.262;2023-08-08T01:32:44;13.00;99.90
59469;DHT22;45277;52.768;18.262;2023-08-08T01:34:16;13.00;99.90
59469;DHT22;45277;52.768;18.262;2023-08-08T01:35:53;13.00;99.90
59469;DHT22;45277;52.768;18.262;2023-08-08T01:37:29;13.00;99.90
59469;DHT22;45277;52.768;18.262;2023-08-08T01:39:05;12.90;99.90
59469;DHT22;45277;52.768;18.262;2023-08-08T01:40:42;12.90;99.90
59469;DHT22;45277;52.768;18.262;2023-08-08T01:42:15;12.90;99.90
59469;DHT22;45277;52.768;18.262;2023-08-08T01:43:47;12.90;99.90
59469;DHT22;45277;52.768;18.262;2023-08-08T01:45:20;12.90;99.90
59469;DHT22;45277;52.768;18.262;2023-08-08T01:46:52;12.80;99.90
59469;DHT22;45277;52.768;18.262;2023-08-08T01:48:24;12.80;99.90
59469;DHT22;45277;52.768;18.262;2023-08-08T01:49:55;12.80;99.90
59469;DHT22;45277;52.768;18.262;2023-08-08T01:51:27;12.80;99.90
59469;DHT22;45277;52.768;18.262;2023-08-08T01:52:59;12.80;99.90
59469;DHT22;45277;52.768;18.262;2023-08-08T01:54:30;12.80;99.90
59469;DHT22;45277;52.768;18.262;2023-08-08T01:56:01;12.80;99.90
59469;DHT22;45277;52.768;18.262;2023-08-08T01:57:34;12.80;99.90
59469;DHT22;45277;52.768;18.262;2023-08-08T01:59:05;12.80;99.90
59469;DHT22;45277;52.768;18.262;2023-08-08T02:00:36;12.80;99.90
59469;DHT22;45277;52.768;18.262;2023-08-08T02:02:08;12.80;99.90
59469;DHT22;45277;52.768;18.262;2023-08-08T02:03:39;12.90;99.90
59469;DHT22;45277;52.768;18.262;2023-08-08T02:05:10;12.90;99.90
59469;DHT22;45277;52.768;18.262;2023-08-08T02:06:42;12.90;99.90
59469;DHT22;45277;52.768;18.262;2023-08-08T02:08:13;13.00;99.90
59469;DHT22;45277;52.768;18.262;2023-08-08T02:09:45;13.00;99.90
59469;DHT22;45277;52.768;18.262;2023-08-08T02:11:17;13.10;99.90
59469;DHT22;45277;52.768;18.262;2023-08-08T02:12:48;13.00;99.90
59469;DHT22;45277;52.768;18.262;2023-08-08T02:14:19;13.10;99.90
59469;DHT22;45277;52.768;18.262;2023-08-08T02:15:51;13.10;99.90
59469;DHT22;45277;52.768;18.262;2023-08-08T02:17:25;13.10;99.90
59469;DHT22;45277;52.768;18.262;2023-08-08T02:18:56;13.20;99.90
59469;DHT22;45277;52.768;18.262;2023-08-08T02:20:28;13.30;99.90
59469;DHT22;45277;52.768;18.262;2023-08-08T02:21:59;13.30;99.90
59469;DHT22;45277;52.768;18.262;2023-08-08T02:23:30;13.30;99.90
59469;DHT22;45277;52.768;18.262;2023-08-08T02:25:02;13.30;99.90
59469;DHT22;45277;52.768;18.262;2023-08-08T02:26:34;13.40;99.90
59469;DHT22;45277;52.768;18.262;2023-08-08T02:28:05;13.40;99.90
59469;DHT22;45277;52.768;18.262;2023-08-08T02:29:37;13.40;99.90
59469;DHT22;45277;52.768;18.262;2023-08-08T02:31:08;13.40;99.90
59469;DHT22;45277;52.768;18.262;2023-08-08T02:32:39;13.40;99.90
59469;DHT22;45277;52.768;18.262;2023-08-08T02:34:11;13.40;99.90
59469;DHT22;45277;52.768;18.262;2023-08-08T02:35:43;13.40;99.90
59469;DHT22;45277;52.768;18.262;2023-08-08T02:37:14;13.30;99.90
59469;DHT22;45277;52.768;18.262;2023-08-08T02:38:46;13.30;99.90
59469;DHT22;45277;52.768;18.262;2023-08-08T02:40:17;13.30;99.90
59469;DHT22;45277;52.768;18.262;2023-08-08T02:41:48;13.30;99.90
59469;DHT22;45277;52.768;18.262;2023-08-08T02:43:20;13.30;99.90
59469;DHT22;45277;52.768;18.262;2023-08-08T02:44:51;13.30;99.90
59469;DHT22;45277;52.768;18.262;2023-08-08T02:46:22;13.30;99.90
59469;DHT22;45277;52.768;18.262;2023-08-08T02:47:54;13.30;99.90
59469;DHT22;45277;52.768;18.262;2023-08-08T02:49:25;13.30;99.90
59469;DHT22;45277;52.768;18.262;2023-08-08T02:50:57;13.30;99.90
59469;DHT22;45277;52.768;18.262;2023-08-08T02:52:28;13.30;99.90
59469;DHT22;45277;52.768;18.262;2023-08-08T02:53:59;13.30;99.90
59469;DHT22;45277;52.768;18.262;2023-08-08T02:55:31;13.20;99.90
59469;DHT22;45277;52.768;18.262;2023-08-08T02:57:02;13.20;99.90
59469;DHT22;45277;52.768;18.262;2023-08-08T02:58:34;13.20;99.90
59469;DHT22;45277;52.768;18.262;2023-08-08T03:00:05;13.20;99.90
59469;DHT22;45277;52.768;18.262;2023-08-08T03:01:39;13.20;99.90
59469;DHT22;45277;52.768;18.262;2023-08-08T03:03:10;13.10;99.90
59469;DHT22;45277;52.768;18.262;2023-08-08T03:04:42;13.10;99.90
59469;DHT22;45277;52.768;18.262;2023-08-08T03:06:14;13.10;99.90
59469;DHT22;45277;52.768;18.262;2023-08-08T03:07:45;13.10;99.90
59469;DHT22;45277;52.768;18.262;2023-08-08T03:09:16;13.10;99.90
59469;DHT22;45277;52.768;18.262;2023-08-08T03:10:48;13.10;99.90
59469;DHT22;45277;52.768;18.262;2023-08-08T03:12:20;13.10;99.90
59469;DHT22;45277;52.768;18.262;2023-08-08T03:13:51;13.10;99.90
59469;DHT22;45277;52.768;18.262;2023-08-08T03:15:23;13.20;99.90
59469;DHT22;45277;52.768;18.262;2023-08-08T03:16:54;13.20;99.90
59469;DHT22;45277;52.768;18.262;2023-08-08T03:18:26;13.20;99.90
59469;DHT22;45277;52.768;18.262;2023-08-08T03:19:57;13.20;99.90
59469;DHT22;45277;52.768;18.262;2023-08-08T03:21:29;13.20;99.90
59469;DHT22;45277;52.768;18.262;2023-08-08T03:23:00;13.20;99.90
59469;DHT22;45277;52.768;18.262;2023-08-08T03:24:31;13.20;99.90
59469;DHT22;45277;52.768;18.262;2023-08-08T03:26:03;13.20;99.90
59469;DHT22;45277;52.768;18.262;2023-08-08T03:27:34;13.20;99.90
59469;DHT22;45277;52.768;18.262;2023-08-08T03:29:05;13.20;99.90
59469;DHT22;45277;52.768;18.262;2023-08-08T03:30:40;13.20;99.90
59469;DHT22;45277;52.768;18.262;2023-08-08T03:32:12;13.30;99.90
59469;DHT22;45277;52.768;18.262;2023-08-08T03:33:43;13.30;99.90
59469;DHT22;45277;52.768;18.262;2023-08-08T03:35:14;13.30;99.90
59469;DHT22;45277;52.768;18.262;2023-08-08T03:36:46;13.30;99.90
59469;DHT22;45277;52.768;18.262;2023-08-08T03:38:17;13.30;99.90
59469;DHT22;45277;52.768;18.262;2023-08-08T03:39:49;13.30;99.90
59469;DHT22;45277;52.768;18.262;2023-08-08T03:41:20;13.30;99.90
59469;DHT22;45277;52.768;18.262;2023-08-08T03:42:51;13.30;99.90
59469;DHT22;45277;52.768;18.262;2023-08-08T03:44:23;13.40;99.90
59469;DHT22;45277;52.768;18.262;2023-08-08T03:45:54;13.30;99.90
59469;DHT22;45277;52.768;18.262;2023-08-08T03:47:26;13.40;99.90
59469;DHT22;45277;52.768;18.262;2023-08-08T03:48:57;13.40;99.90
59469;DHT22;45277;52.768;18.262;2023-08-08T03:50:28;13.40;99.90
59469;DHT22;45277;52.768;18.262;2023-08-08T03:52:00;13.40;99.90
59469;DHT22;45277;52.768;18.262;2023-08-08T03:53:31;13.40;99.90
59469;DHT22;45277;52.768;18.262;2023-08-08T03:55:04;13.50;99.90
59469;DHT22;45277;52.768;18.262;2023-08-08T03:56:36;13.60;99.90
59469;DHT22;45277;52.768;18.262;2023-08-08T03:58:07;13.60;99.90
59469;DHT22;45277;52.768;18.262;2023-08-08T03:59:38;13.60;99.90
59469;DHT22;45277;52.768;18.262;2023-08-08T04:01:10;13.60;99.90
59469;DHT22;45277;52.768;18.262;2023-08-08T04:02:43;13.60;99.90
59469;DHT22;45277;52.768;18.262;2023-08-08T04:04:15;13.60;99.90
59469;DHT22;45277;52.768;18.262;2023-08-08T04:05:47;13.60;99.90
59469;DHT22;45277;52.768;18.262;2023-08-08T04:07:21;13.60;99.90
59469;DHT22;45277;52.768;18.262;2023-08-08T04:08:53;13.60;99.90
59469;DHT22;45277;52.768;18.262;2023-08-08T04:10:25;13.60;99.90
59469;DHT22;45277;52.768;18.262;2023-08-08T04:11:56;13.60;99.90
59469;DHT22;45277;52.768;18.262;2023-08-08T04:13:28;13.60;99.90
59469;DHT22;45277;52.768;18.262;2023-08-08T04:15:00;13.60;99.90
59469;DHT22;45277;52.768;18.262;2023-08-08T04:16:32;13.70;99.90
59469;DHT22;45277;52.768;18.262;2023-08-08T04:18:04;13.60;99.90
59469;DHT22;45277;52.768;18.262;2023-08-08T04:19:38;13.70;99.90
59469;DHT22;45277;52.768;18.262;2023-08-08T04:21:09;13.60;99.90
59469;DHT22;45277;52.768;18.262;2023-08-08T04:22:41;13.70;99.90
59469;DHT22;45277;52.768;18.262;2023-08-08T04:24:12;13.70;99.90
59469;DHT22;45277;52.768;18.262;2023-08-08T04:25:44;13.70;99.90
59469;DHT22;45277;52.768;18.262;2023-08-08T04:27:16;13.80;99.90
59469;DHT22;45277;52.768;18.262;2023-08-08T04:28:47;13.80;99.90
59469;DHT22;45277;52.768;18.262;2023-08-08T04:30:19;13.80;99.90
59469;DHT22;45277;52.768;18.262;2023-08-08T04:31:50;13.80;99.90
59469;DHT22;45277;52.768;18.262;2023-08-08T04:33:22;13.80;99.90
59469;DHT22;45277;52.768;18.262;2023-08-08T04:34:53;13.90;99.90
59469;DHT22;45277;52.768;18.262;2023-08-08T04:36:25;13.80;99.90
59469;DHT22;45277;52.768;18.262;2023-08-08T04:37:57;13.80;99.90
59469;DHT22;45277;52.768;18.262;2023-08-08T04:39:28;13.80;99.90
59469;DHT22;45277;52.768;18.262;2023-08-08T04:40:59;13.80;99.90
59469;DHT22;45277;52.768;18.262;2023-08-08T04:42:32;13.80;99.90
59469;DHT22;45277;52.768;18.262;2023-08-08T04:44:03;13.90;99.90
59469;DHT22;45277;52.768;18.262;2023-08-08T04:45:34;13.90;99.90
59469;DHT22;45277;52.768;18.262;2023-08-08T04:47:06;13.90;99.90
59469;DHT22;45277;52.768;18.262;2023-08-08T04:48:37;14.00;99.90
59469;DHT22;45277;52.768;18.262;2023-08-08T04:50:10;14.00;99.90
59469;DHT22;45277;52.768;18.262;2023-08-08T04:51:42;14.00;99.90
59469;DHT22;45277;52.768;18.262;2023-08-08T04:53:13;13.90;99.90
59469;DHT22;45277;52.768;18.262;2023-08-08T04:54:44;14.00;99.90
59469;DHT22;45277;52.768;18.262;2023-08-08T04:56:16;14.00;99.90
59469;DHT22;45277;52.768;18.262;2023-08-08T04:57:47;14.00;99.90
59469;DHT22;45277;52.768;18.262;2023-08-08T04:59:19;13.90;99.90
59469;DHT22;45277;52.768;18.262;2023-08-08T05:00:50;13.90;99.90
59469;DHT22;45277;52.768;18.262;2023-08-08T05:02:22;13.80;99.90
59469;DHT22;45277;52.768;18.262;2023-08-08T05:03:53;13.80;99.90
59469;DHT22;45277;52.768;18.262;2023-08-08T05:05:25;13.80;99.90
59469;DHT22;45277;52.768;18.262;2023-08-08T05:06:56;13.70;99.90
59469;DHT22;45277;52.768;18.262;2023-08-08T05:08:28;13.70;99.90
59469;DHT22;45277;52.768;18.262;2023-08-08T05:10:02;13.70;99.90
59469;DHT22;45277;52.768;18.262;2023-08-08T05:11:33;13.70;99.90
59469;DHT22;45277;52.768;18.262;2023-08-08T05:13:05;13.70;99.90
59469;DHT22;45277;52.768;18.262;2023-08-08T05:14:38;13.70;99.90
59469;DHT22;45277;52.768;18.262;2023-08-08T05:16:10;13.80;99.90
59469;DHT22;45277;52.768;18.262;2023-08-08T05:17:41;13.90;99.90
59469;DHT22;45277;52.768;18.262;2023-08-08T05:19:19;14.00;99.90
59469;DHT22;45277;52.768;18.262;2023-08-08T05:20:50;14.00;99.90
59469;DHT22;45277;52.768;18.262;2023-08-08T05:22:22;14.00;99.90
59469;DHT22;45277;52.768;18.262;2023-08-08T05:23:53;13.90;99.90
59469;DHT22;45277;52.768;18.262;2023-08-08T05:25:25;13.90;99.90
59469;DHT22;45277;52.768;18.262;2023-08-08T05:26:56;13.90;99.90
59469;DHT22;45277;52.768;18.262;2023-08-08T05:28:29;13.90;99.90
59469;DHT22;45277;52.768;18.262;2023-08-08T05:30:02;13.80;99.90
59469;DHT22;45277;52.768;18.262;2023-08-08T05:31:34;13.80;99.90
59469;DHT22;45277;52.768;18.262;2023-08-08T05:33:05;13.80;99.90
59469;DHT22;45277;52.768;18.262;2023-08-08T05:34:37;13.80;99.90
59469;DHT22;45277;52.768;18.262;2023-08-08T05:36:08;13.80;99.90
59469;DHT22;45277;52.768;18.262;2023-08-08T05:37:39;13.90;99.90
59469;DHT22;45277;52.768;18.262;2023-08-08T05:39:11;14.00;99.90
59469;DHT22;45277;52.768;18.262;2023-08-08T05:40:42;14.10;99.90
59469;DHT22;45277;52.768;18.262;2023-08-08T05:42:14;14.20;99.90
59469;DHT22;45277;52.768;18.262;2023-08-08T05:43:45;14.30;99.90
59469;DHT22;45277;52.768;18.262;2023-08-08T05:45:16;14.40;99.90
59469;DHT22;45277;52.768;18.262;2023-08-08T05:46:48;14.50;99.90
59469;DHT22;45277;52.768;18.262;2023-08-08T05:48:19;14.60;99.90
59469;DHT22;45277;52.768;18.262;2023-08-08T05:49:50;14.80;99.90
59469;DHT22;45277;52.768;18.262;2023-08-08T05:51:22;14.90;99.90
59469;DHT22;45277;52.768;18.262;2023-08-08T05:52:54;14.90;99.90
59469;DHT22;45277;52.768;18.262;2023-08-08T05:54:25;14.90;99.90
59469;DHT22;45277;52.768;18.262;2023-08-08T05:55:57;14.90;99.90
59469;DHT22;45277;52.768;18.262;2023-08-08T05:57:28;14.90;99.90
59469;DHT22;45277;52.768;18.262;2023-08-08T05:59:00;14.80;99.90
59469;DHT22;45277;52.768;18.262;2023-08-08T06:00:31;14.80;99.90
59469;DHT22;45277;52.768;18.262;2023-08-08T06:02:03;14.80;99.90
59469;DHT22;45277;52.768;18.262;2023-08-08T06:03:34;14.70;99.90
59469;DHT22;45277;52.768;18.262;2023-08-08T06:05:06;14.70;99.90
59469;DHT22;45277;52.768;18.262;2023-08-08T06:06:38;14.70;99.90
59469;DHT22;45277;52.768;18.262;2023-08-08T06:08:09;14.70;99.90
59469;DHT22;45277;52.768;18.262;2023-08-08T06:09:43;14.80;99.90
59469;DHT22;45277;52.768;18.262;2023-08-08T06:11:14;14.80;99.90
59469;DHT22;45277;52.768;18.262;2023-08-08T06:12:46;14.90;99.90
59469;DHT22;45277;52.768;18.262;2023-08-08T06:14:17;14.90;99.90
59469;DHT22;45277;52.768;18.262;2023-08-08T06:15:49;14.90;99.90
59469;DHT22;45277;52.768;18.262;2023-08-08T06:17:20;14.90;99.90
59469;DHT22;45277;52.768;18.262;2023-08-08T06:18:52;14.90;99.90
59469;DHT22;45277;52.768;18.262;2023-08-08T06:20:24;14.80;99.90
59469;DHT22;45277;52.768;18.262;2023-08-08T06:21:55;14.90;99.90
59469;DHT22;45277;52.768;18.262;2023-08-08T06:23:27;14.90;99.90
59469;DHT22;45277;52.768;18.262;2023-08-08T06:24:58;14.90;99.90
59469;DHT22;45277;52.768;18.262;2023-08-08T06:26:29;15.00;99.90
59469;DHT22;45277;52.768;18.262;2023-08-08T06:28:01;15.00;99.90
59469;DHT22;45277;52.768;18.262;2023-08-08T06:29:32;15.10;99.90
59469;DHT22;45277;52.768;18.262;2023-08-08T06:31:04;15.20;99.90
59469;DHT22;45277;52.768;18.262;2023-08-08T06:32:35;15.30;99.90
59469;DHT22;45277;52.768;18.262;2023-08-08T06:34:06;15.30;99.70
59469;DHT22;45277;52.768;18.262;2023-08-08T06:35:39;15.30;98.60
59469;DHT22;45277;52.768;18.262;2023-08-08T06:37:10;15.40;94.80
59469;DHT22;45277;52.768;18.262;2023-08-08T06:38:42;15.40;96.90
59469;DHT22;45277;52.768;18.262;2023-08-08T06:40:13;15.50;95.00
59469;DHT22;45277;52.768;18.262;2023-08-08T06:41:45;15.50;98.10
59469;DHT22;45277;52.768;18.262;2023-08-08T06:43:16;15.60;93.80
59469;DHT22;45277;52.768;18.262;2023-08-08T06:44:48;15.60;93.60
59469;DHT22;45277;52.768;18.262;2023-08-08T06:46:20;15.60;95.00
59469;DHT22;45277;52.768;18.262;2023-08-08T06:47:51;15.80;94.30
59469;DHT22;45277;52.768;18.262;2023-08-08T06:49:23;15.90;90.90
59469;DHT22;45277;52.768;18.262;2023-08-08T06:50:54;15.90;86.50
59469;DHT22;45277;52.768;18.262;2023-08-08T06:52:26;15.90;87.20
59469;DHT22;45277;52.768;18.262;2023-08-08T06:53:57;15.90;91.70
59469;DHT22;45277;52.768;18.262;2023-08-08T06:55:29;16.00;87.70
59469;DHT22;45277;52.768;18.262;2023-08-08T06:57:00;16.00;88.00
59469;DHT22;45277;52.768;18.262;2023-08-08T06:58:33;15.90;85.60
59469;DHT22;45277;52.768;18.262;2023-08-08T07:00:05;15.80;86.20
59469;DHT22;45277;52.768;18.262;2023-08-08T07:01:37;15.70;88.80
59469;DHT22;45277;52.768;18.262;2023-08-08T07:03:08;15.70;89.80
59469;DHT22;45277;52.768;18.262;2023-08-08T07:04:40;15.60;90.40
59469;DHT22;45277;52.768;18.262;2023-08-08T07:06:12;15.60;92.10
59469;DHT22;45277;52.768;18.262;2023-08-08T07:07:43;15.80;92.80
59469;DHT22;45277;52.768;18.262;2023-08-08T07:09:16;15.90;91.10
59469;DHT22;45277;52.768;18.262;2023-08-08T07:10:47;16.10;91.50
59469;DHT22;45277;52.768;18.262;2023-08-08T07:12:19;16.30;76.20
59469;DHT22;45277;52.768;18.262;2023-08-08T07:13:50;16.40;74.20
59469;DHT22;45277;52.768;18.262;2023-08-08T07:15:22;16.40;74.40
59469;DHT22;45277;52.768;18.262;2023-08-08T07:16:53;16.40;68.10
59469;DHT22;45277;52.768;18.262;2023-08-08T07:18:25;16.40;75.50
59469;DHT22;45277;52.768;18.262;2023-08-08T07:19:56;16.40;70.30
59469;DHT22;45277;52.768;18.262;2023-08-08T07:21:28;16.40;76.80
59469;DHT22;45277;52.768;18.262;2023-08-08T07:23:00;16.50;65.70
59469;DHT22;45277;52.768;18.262;2023-08-08T07:24:32;16.60;64.10
59469;DHT22;45277;52.768;18.262;2023-08-08T07:26:03;16.60;65.60
59469;DHT22;45277;52.768;18.262;2023-08-08T07:27:36;16.70;63.50
59469;DHT22;45277;52.768;18.262;2023-08-08T07:29:07;16.80;62.00
59469;DHT22;45277;52.768;18.262;2023-08-08T07:30:39;16.80;59.50
59469;DHT22;45277;52.768;18.262;2023-08-08T07:32:10;16.90;60.70
59469;DHT22;45277;52.768;18.262;2023-08-08T07:33:42;17.00;64.40
59469;DHT22;45277;52.768;18.262;2023-08-08T07:35:13;17.00;61.30
59469;DHT22;45277;52.768;18.262;2023-08-08T07:36:47;16.80;60.00
59469;DHT22;45277;52.768;18.262;2023-08-08T07:38:18;16.60;56.30
59469;DHT22;45277;52.768;18.262;2023-08-08T07:39:50;16.50;61.80
59469;DHT22;45277;52.768;18.262;2023-08-08T07:41:26;16.30;66.70
59469;DHT22;45277;52.768;18.262;2023-08-08T07:42:57;16.30;73.00
59469;DHT22;45277;52.768;18.262;2023-08-08T07:44:28;16.40;74.30
59469;DHT22;45277;52.768;18.262;2023-08-08T07:46:00;16.40;68.80
59469;DHT22;45277;52.768;18.262;2023-08-08T07:47:32;16.40;70.10
59469;DHT22;45277;52.768;18.262;2023-08-08T07:49:03;16.40;73.80
59469;DHT22;45277;52.768;18.262;2023-08-08T07:50:36;16.40;73.90
59469;DHT22;45277;52.768;18.262;2023-08-08T07:52:07;16.40;77.70
59469;DHT22;45277;52.768;18.262;2023-08-08T07:53:39;16.40;76.70
59469;DHT22;45277;52.768;18.262;2023-08-08T07:55:10;16.40;65.80
59469;DHT22;45277;52.768;18.262;2023-08-08T07:56:41;16.20;67.60
59469;DHT22;45277;52.768;18.262;2023-08-08T07:58:13;16.10;73.60
59469;DHT22;45277;52.768;18.262;2023-08-08T07:59:45;16.10;81.60
59469;DHT22;45277;52.768;18.262;2023-08-08T08:01:17;16.10;78.20
59469;DHT22;45277;52.768;18.262;2023-08-08T08:02:48;16.20;82.80
59469;DHT22;45277;52.768;18.262;2023-08-08T08:04:22;16.30;70.60
59469;DHT22;45277;52.768;18.262;2023-08-08T08:05:54;16.50;70.90
59469;DHT22;45277;52.768;18.262;2023-08-08T08:07:25;16.70;63.70
59469;DHT22;45277;52.768;18.262;2023-08-08T08:08:57;16.70;68.50
59469;DHT22;45277;52.768;18.262;2023-08-08T08:10:28;16.80;65.40
59469;DHT22;45277;52.768;18.262;2023-08-08T08:12:00;16.90;71.50
59469;DHT22;45277;52.768;18.262;2023-08-08T08:13:32;16.90;61.00
59469;DHT22;45277;52.768;18.262;2023-08-08T08:15:03;16.70;61.90
59469;DHT22;45277;52.768;18.262;2023-08-08T08:16:35;16.60;72.40
59469;DHT22;45277;52.768;18.262;2023-08-08T08:18:07;16.50;63.30
59469;DHT22;45277;52.768;18.262;2023-08-08T08:19:38;16.60;69.50
59469;DHT22;45277;52.768;18.262;2023-08-08T08:21:09;16.60;71.00
59469;DHT22;45277;52.768;18.262;2023-08-08T08:22:41;16.50;69.50
59469;DHT22;45277;52.768;18.262;2023-08-08T08:24:12;16.60;64.50
59469;DHT22;45277;52.768;18.262;2023-08-08T08:25:44;16.60;68.10
59469;DHT22;45277;52.768;18.262;2023-08-08T08:27:16;16.60;65.20
59469;DHT22;45277;52.768;18.262;2023-08-08T08:28:48;16.70;66.00
59469;DHT22;45277;52.768;18.262;2023-08-08T08:30:20;16.70;65.90
59469;DHT22;45277;52.768;18.262;2023-08-08T08:31:51;16.70;65.10
59469;DHT22;45277;52.768;18.262;2023-08-08T08:33:23;16.80;63.60
59469;DHT22;45277;52.768;18.262;2023-08-08T08:34:55;16.80;60.80
59469;DHT22;45277;52.768;18.262;2023-08-08T08:36:27;16.80;62.10
59469;DHT22;45277;52.768;18.262;2023-08-08T08:37:59;16.90;71.50
59469;DHT22;45277;52.768;18.262;2023-08-08T08:39:31;17.00;69.40
59469;DHT22;45277;52.768;18.262;2023-08-08T08:41:03;17.20;66.10
59469;DHT22;45277;52.768;18.262;2023-08-08T08:42:40;17.30;55.70
59469;DHT22;45277;52.768;18.262;2023-08-08T08:44:12;17.20;50.20
59469;DHT22;45277;52.768;18.262;2023-08-08T08:45:53;17.40;55.80
59469;DHT22;45277;52.768;18.262;2023-08-08T08:47:25;17.50;47.00
59469;DHT22;45277;52.768;18.262;2023-08-08T08:49:01;17.20;45.30
59469;DHT22;45277;52.768;18.262;2023-08-08T08:50:34;17.00;51.70
59469;DHT22;45277;52.768;18.262;2023-08-08T08:52:05;16.80;54.10
59469;DHT22;45277;52.768;18.262;2023-08-08T08:53:37;16.70;55.40
59469;DHT22;45277;52.768;18.262;2023-08-08T08:55:17;16.60;57.40
59469;DHT22;45277;52.768;18.262;2023-08-08T08:56:51;16.60;65.10
59469;DHT22;45277;52.768;18.262;2023-08-08T08:58:25;16.70;73.10
59469;DHT22;45277;52.768;18.262;2023-08-08T08:59:57;16.70;69.80
59469;DHT22;45277;52.768;18.262;2023-08-08T09:01:29;16.80;64.40
59469;DHT22;45277;52.768;18.262;2023-08-08T09:03:01;16.70;68.60
59469;DHT22;45277;52.768;18.262;2023-08-08T09:04:34;16.70;68.20
59469;DHT22;45277;52.768;18.262;2023-08-08T09:06:06;16.70;62.90
59469;DHT22;45277;52.768;18.262;2023-08-08T09:07:37;16.60;66.70
59469;DHT22;45277;52.768;18.262;2023-08-08T09:09:09;16.60;70.60
59469;DHT22;45277;52.768;18.262;2023-08-08T09:10:41;16.70;66.60
59469;DHT22;45277;52.768;18.262;2023-08-08T09:12:12;16.70;59.80
59469;DHT22;45277;52.768;18.262;2023-08-08T09:13:44;16.90;59.70
59469;DHT22;45277;52.768;18.262;2023-08-08T09:15:15;17.00;49.00
59469;DHT22;45277;52.768;18.262;2023-08-08T09:16:48;17.10;48.60
59469;DHT22;45277;52.768;18.262;2023-08-08T09:18:23;17.30;49.70
59469;DHT22;45277;52.768;18.262;2023-08-08T09:19:58;17.50;49.60
59469;DHT22;45277;52.768;18.262;2023-08-08T09:21:30;17.70;40.50
59469;DHT22;45277;52.768;18.262;2023-08-08T09:23:02;17.80;39.00
59469;DHT22;45277;52.768;18.262;2023-08-08T09:24:40;18.00;46.50
59469;DHT22;45277;52.768;18.262;2023-08-08T09:26:15;18.00;32.70
59469;DHT22;45277;52.768;18.262;2023-08-08T09:27:53;17.90;37.10
59469;DHT22;45277;52.768;18.262;2023-08-08T09:29:25;17.80;43.50
59469;DHT22;45277;52.768;18.262;2023-08-08T09:30:57;17.80;48.10
59469;DHT22;45277;52.768;18.262;2023-08-08T09:32:32;17.80;48.80